Startpagina
METAR-TAF:

METAR-TAF

Vliegvelden :

Georgetown, Ascension

breedte: 07-58S, lengte: 014-24W, hoogte: 86 m

Actueel weer

Dit bericht is 1 uur en het 55 minuten geleden gemaakt, om 14:50 UTC
Wind 14 kt uit het zuidoosten
Temperatuur 29°C
Vochtigheid 62%
Druk 1013 hPa
Zicht 10 km of meer
Verspreide wolken op 2000 ft
Verspreide wolken op 4300 ft

METAR: FHAW 301450Z 14014KT 9999 SCT020 SCT043 29/21 Q1013 WHT

Tijdstip: 16:45 (16:45 UTC)


TAF: ontbreekt

Waarnemingen en weersverwachtingen van meer dan 4000 vliegvelden (METAR en TAF).

De beschikbare stations zijn de gele en rode punten op de kaart.

Ga met uw muis naar het station om de naam te zien.

Klik dan om waarnemingen en weersverwachtingen te zien.

kaart wijzigen: klik op de groene knoppen met een zwart kruis om in te zoomen, op de groene knop met een streepje om uit te zoomen of op de groene pijlen voor aangrenzende kaarten.


METAR-TAF: